Nearby METAR Reports

 

KMRB - Martinsburg, West Virginia, USA
Distance from station: NNW 9mi, 14km
Updated: 09/23/2017 4:53pm
Clear
Clear
 Wind from NNE
Wind: NNE 7 mph , 11 km/h
Temperature: 88°F , 31°C
Dew Point: 52°F , 11°C
Humidity: 29%
Barometer: 30.06 inHg , 1017.9 hPa
Clouds: Clear
Visibility: 10 miles , 16 km
2017/09/23 20:53 KMRB 232053Z AUTO 02006KT 10SM CLR 31/11 A3006 RMK AO2 SLP176 T03110106 56011 $
KOKV - Winchester Rgnl, Virginia, USA
Distance from station: SW 17mi, 28km
Updated: 09/23/2017 5:35pm
Haze, Clear
Haze, Clear
 Wind from calm
Wind: Calm
Temperature: 82°F , 28°C
Heat Index: 81°F , 27°C
Dew Point: 55°F , 13°C
Humidity: 40%
Barometer: 30.08 inHg , 1018.6 hPa
Summary: Haze
Clouds: Clear
Visibility: 4 miles , 6 km
2017/09/23 21:35 KOKV 232135Z AUTO 00000KT 4SM HZ CLR 28/13 A3008 RMK AO2
 
KJYO - Leesburg/Godfrey, Virginia, USA
Distance from station: SE 23mi, 38km
Updated: 09/23/2017 5:15pm
Clear
Clear
 Wind from WNW
Wind: WNW 3 mph , 6 km/h
Temperature: 86°F , 30°C
Heat Index: 88°F , 31°C
Dew Point: 64°F , 18°C
Humidity: 49%
Barometer: 30.07 inHg , 1018.3 hPa
Clouds: Clear
Visibility: 10 miles , 16 km
2017/09/23 21:15 KJYO 232115Z AUTO 29003KT 10SM CLR 30/18 A3007 RMK AO2
KFDK - Frederick, Maryland, USA
Distance from station: ENE 30mi, 48km
Updated: 09/23/2017 4:48pm
Clear
Clear
 Wind from NE
Wind: NE 6 mph , 9 km/h
Temperature: 90°F , 32°C
Dew Point: 48°F , 9°C
Humidity: 24%
Barometer: 30.08 inHg , 1018.6 hPa
Clouds: Clear
Visibility: 10 miles , 16 km
2017/09/23 20:48 KFDK 232048Z 05005KT 10SM SKC 32/09 A3008
 
KHGR - Hagerstown, Maryland, USA
Distance from station: NNE 30mi, 48km
Updated: 09/23/2017 4:53pm
Clear
Clear
 Wind from NNE
Wind: NNE 6 mph , 9 km/h
Temperature: 88°F , 31°C
Dew Point: 52°F , 11°C
Humidity: 29%
Barometer: 30.07 inHg , 1018.3 hPa
Clouds: Clear
Visibility: 10 miles , 16 km
2017/09/23 20:53 KHGR 232053Z 03005KT 10SM CLR 31/11 A3007 RMK AO2 SLP186 T03110106 56012
KIAD - Wash Dc/Dulles, Virginia, USA
Distance from station: SE 34mi, 55km
Updated: 09/23/2017 4:52pm
Few Clouds
Few Clouds
 Wind from NNW
Wind: NNW 7 mph , 11 km/h
Temperature: 86°F , 30°C
Heat Index: 86°F , 30°C
Dew Point: 61°F , 16°C
Humidity: 43%
Barometer: 30.06 inHg , 1017.9 hPa
Clouds: Few Clouds
Visibility: 10 miles , 16 km
Cloud details: Few Clouds 25000 ft
2017/09/23 20:52 KIAD 232052Z 34006KT 10SM FEW250 30/16 A3006 RMK AO2 SLP176 T03000156 56008
 
KRSP - Nsf Thurmont, Maryland, USA
Distance from station: NE 34mi, 55km
Updated: 09/23/2017 4:54pm
Clear
Clear
 Wind from N
Wind: N 5 mph , 7 km/h
Temperature: 82°F , 28°C
Heat Index: 82°F , 28°C
Dew Point: 59°F , 15°C
Humidity: 45%
Barometer: 30.13 inHg , 1020.3 hPa
Clouds: Clear
Visibility: 10 miles , 16 km
2017/09/23 20:54 KRSP 232054Z AUTO 36004KT 10SM CLR 28/15 A3013 RMK AO2 SLP291 T02780150 55007 $
KGAI - Gaithersburg, Maryland, USA
Distance from station: E 40mi, 64km
Updated: 09/23/2017 4:56pm
Clear
Clear
 Wind from varies
Wind: varies 3 mph , 6 km/h
Temperature: 84°F , 29°C
Heat Index: 84°F , 29°C
Dew Point: 59°F , 15°C
Humidity: 43%
Barometer: 30.08 inHg , 1018.6 hPa
Clouds: Clear
Visibility: 10 miles , 16 km
2017/09/23 20:56 KGAI 232056Z AUTO VRB03KT 10SM CLR 29/15 A3008 RMK AO2 SLP207 T02890150 56007
 
KRYT - Fountain Dale, Pennsylvania, USA
Distance from station: NE 40mi, 64km
Updated: 09/23/2017 3:53pm
NOT Current
Clear
Clear
 Wind from calm
Wind: Calm
Temperature: 84°F , 29°C
Heat Index: 83°F , 28°C
Dew Point: 57°F , 14°C
Humidity: 40%
Barometer: 30.07 inHg , 1018.3 hPa
Clouds: Clear
Visibility: 10 miles , 16 km
2017/09/23 19:53 KRYT 231953Z AUTO 00000KT 10SM CLR 29/14 A3007 RMK AO2 SLP172 T02940139 TSNO $
KHEF - Manassas Muni, Virginia, USA
Distance from station: SSE 44mi, 72km
Updated: 09/23/2017 4:56pm
Clear
Clear
 Wind from calm
Wind: Calm
Temperature: 86°F , 30°C
Heat Index: 85°F , 29°C
Dew Point: 59°F , 15°C
Humidity: 40%
Barometer: 30.06 inHg , 1017.9 hPa
Clouds: Clear
Visibility: 10 miles , 16 km
2017/09/23 20:56 KHEF 232056Z AUTO 00000KT 10SM CLR 30/15 A3006 RMK AO2 SLP188 6//// T03000150 56006 PNO $
 
KHWY - Warrenton, Virginia, USA
Distance from station: SSE 50mi, 80km
Updated: 09/23/2017 5:15pm
Clear
Clear
 Wind from N
Wind: N 7 mph , 11 km/h
Temperature: 86°F , 30°C
Dew Point: 57°F , 14°C
Humidity: 38%
Barometer: 30.07 inHg , 1018.3 hPa
Clouds: Clear
Visibility: 10 miles , 16 km
2017/09/23 21:15 KHWY 232115Z AUTO 36006KT 10SM CLR 30/14 A3007 RMK AO2 T03020135